sim
Sign-in with your pilot id or email,
or register
Callsign
Passwort

Schedule Details

Flight Number: DLH2388 (2)
Departure: Munich Airport (EDDM) at 17:55
Arrival: Geneva International Airport (LSGG) at 19:10
Route: Lufthansa Passenger Schedule. Enter filed route here before submitting Pirep.

Weather Information
Getting current METAR information for EDDM 212350Z 10003KT 7000 2000NE BCFG NSC 09/09 Q1015 NOSIG
Getting current METAR information for LSGG 212350Z AUTO 27001KT 9999 BKN080 16/16 Q1016 NOSIG

Schedule Frequency

Route Map